createdAt,value
2016-08-16T00:00:03.343Z,0.00
2016-08-16T00:01:04.030Z,0.00
2016-08-16T00:02:04.405Z,0.00
2016-08-16T00:03:05.088Z,0.00
2016-08-16T00:04:05.588Z,0.00
2016-08-16T00:05:05.983Z,0.00
2016-08-16T00:06:06.832Z,0.00
2016-08-16T00:07:07.193Z,0.00
2016-08-16T00:08:07.574Z,0.00
2016-08-16T00:09:07.925Z,0.00
2016-08-16T00:10:08.475Z,0.00
2016-08-16T00:11:09.427Z,0.00
2016-08-16T00:12:09.520Z,0.00
2016-08-16T00:13:10.071Z,0.00
2016-08-16T00:14:10.718Z,0.00
2016-08-16T00:15:11.538Z,0.00
2016-08-16T00:16:11.795Z,0.00
2016-08-16T00:17:12.615Z,0.00
2016-08-16T00:18:12.994Z,0.00
2016-08-16T00:19:13.185Z,0.00
2016-08-16T00:20:14.049Z,0.00
2016-08-16T00:21:14.423Z,0.00
2016-08-16T00:22:14.943Z,0.00
2016-08-16T00:23:15.758Z,0.00
2016-08-16T00:24:15.988Z,0.00
2016-08-16T00:25:16.381Z,0.00
2016-08-16T00:26:16.898Z,0.00
2016-08-16T00:27:17.874Z,0.00
2016-08-16T00:28:17.968Z,0.00
2016-08-16T00:29:18.494Z,0.00
2016-08-16T00:30:19.310Z,0.00
2016-08-16T00:31:19.988Z,0.00
2016-08-16T00:32:20.369Z,0.00
2016-08-16T00:33:21.042Z,0.00
2016-08-16T00:34:21.126Z,0.00
2016-08-16T00:35:22.256Z,0.00
2016-08-16T00:36:22.349Z,0.00
2016-08-16T00:37:23.021Z,0.00
2016-08-16T00:38:23.398Z,0.00
2016-08-16T00:39:23.909Z,0.00
2016-08-16T00:40:24.906Z,0.00
2016-08-16T00:41:25.109Z,0.00
2016-08-16T00:42:25.523Z,0.00
2016-08-16T00:43:26.224Z,0.00
2016-08-16T00:44:26.572Z,0.00
2016-08-16T00:45:27.241Z,0.00
2016-08-16T00:46:27.609Z,0.00
2016-08-16T00:47:28.277Z,0.00
2016-08-16T00:48:28.672Z,0.00
2016-08-16T00:49:29.346Z,0.00
2016-08-16T00:50:29.704Z,0.00
2016-08-16T00:51:30.090Z,0.00
2016-08-16T00:52:30.769Z,0.00
2016-08-16T00:53:31.298Z,0.00
2016-08-16T00:54:31.666Z,0.00
2016-08-16T00:55:32.351Z,0.00
2016-08-16T00:56:32.752Z,0.00
2016-08-16T00:57:33.417Z,0.00
2016-08-16T00:58:34.219Z,0.00
2016-08-16T00:59:34.903Z,0.00
2016-08-16T01:00:34.856Z,0.00
2016-08-16T01:01:35.510Z,0.00
2016-08-16T01:02:36.044Z,0.00
2016-08-16T01:03:36.570Z,0.00
2016-08-16T01:04:37.105Z,0.00
2016-08-16T01:05:37.484Z,0.00
2016-08-16T01:06:38.310Z,0.00
2016-08-16T01:07:38.696Z,0.00
2016-08-16T01:08:39.382Z,0.00
2016-08-16T01:09:39.594Z,0.00
2016-08-16T01:10:40.272Z,0.00
2016-08-16T01:11:40.967Z,0.00
2016-08-16T01:12:41.325Z,0.00
2016-08-16T01:13:41.713Z,0.00
2016-08-16T01:14:42.673Z,0.00
2016-08-16T01:15:42.902Z,0.00
2016-08-16T01:16:43.601Z,0.00
2016-08-16T01:17:43.955Z,0.00
2016-08-16T01:18:44.657Z,0.00
2016-08-16T01:19:45.018Z,0.00
2016-08-16T01:20:45.693Z,0.00
2016-08-16T01:21:46.372Z,0.00
2016-08-16T01:22:46.764Z,0.00
2016-08-16T01:23:47.147Z,0.00
2016-08-16T01:24:48.102Z,0.00
2016-08-16T01:25:48.478Z,0.00
2016-08-16T01:26:48.868Z,0.00
2016-08-16T01:27:49.384Z,0.00
2016-08-16T01:28:50.064Z,0.00
2016-08-16T01:29:50.289Z,0.00
2016-08-16T01:30:50.829Z,0.00
2016-08-16T01:31:51.346Z,0.00
2016-08-16T01:32:52.022Z,0.00
2016-08-16T01:33:52.552Z,0.00
2016-08-16T01:34:53.078Z,0.00
2016-08-16T01:35:53.307Z,0.00
2016-08-16T01:36:54.036Z,0.00
2016-08-16T01:37:54.527Z,0.00
2016-08-16T01:38:54.888Z,0.00
2016-08-16T01:39:55.617Z,0.00
2016-08-16T01:40:58.832Z,0.00
2016-08-16T01:41:56.511Z,0.00
2016-08-16T01:42:57.308Z,0.00
2016-08-16T01:43:57.687Z,0.00
2016-08-16T01:44:58.386Z,0.00
2016-08-16T01:45:58.623Z,0.00
2016-08-16T01:46:59.132Z,0.00
2016-08-16T01:47:59.654Z,0.00
2016-08-16T01:49:01.514Z,0.00
2016-08-16T01:50:00.865Z,0.00
2016-08-16T01:51:01.411Z,0.00
2016-08-16T01:52:01.896Z,0.00
2016-08-16T01:53:02.445Z,0.00
2016-08-16T01:54:02.963Z,0.00
2016-08-16T01:55:03.345Z,0.00
2016-08-16T01:56:04.152Z,0.00
2016-08-16T01:57:04.414Z,0.00
2016-08-16T01:58:05.061Z,0.00
2016-08-16T01:59:06.669Z,0.00
2016-08-16T02:00:06.430Z,0.00
2016-08-16T02:01:06.792Z,0.00
2016-08-16T02:02:07.172Z,0.00
2016-08-16T02:03:07.552Z,0.00
2016-08-16T02:04:08.247Z,0.00
2016-08-16T02:05:08.765Z,0.00
2016-08-16T02:06:09.291Z,0.00
2016-08-16T02:07:09.814Z,0.00
2016-08-16T02:08:10.628Z,0.00
2016-08-16T02:09:10.858Z,0.00
2016-08-16T02:10:11.528Z,0.00
2016-08-16T02:11:12.058Z,0.00
2016-08-16T02:12:12.595Z,0.00
2016-08-16T02:13:13.129Z,0.00
2016-08-16T02:14:13.662Z,0.00
2016-08-16T02:15:14.059Z,0.00
2016-08-16T02:16:14.428Z,0.00
2016-08-16T02:17:15.148Z,0.00
2016-08-16T02:18:15.629Z,0.00
2016-08-16T02:19:16.035Z,0.00
2016-08-16T02:20:16.814Z,0.00
2016-08-16T02:21:17.213Z,0.00
2016-08-16T02:22:17.748Z,0.00
2016-08-16T02:23:18.270Z,0.00
2016-08-16T02:24:18.796Z,0.00
2016-08-16T02:25:19.308Z,0.00
2016-08-16T02:26:19.828Z,0.00
2016-08-16T02:27:20.521Z,0.00
2016-08-16T02:28:21.031Z,0.00
2016-08-16T02:29:21.561Z,0.00
2016-08-16T02:30:22.084Z,0.00
2016-08-16T02:31:22.627Z,0.00
2016-08-16T02:32:22.992Z,0.00
2016-08-16T02:33:23.383Z,0.00
2016-08-16T02:34:24.047Z,0.00
2016-08-16T02:35:24.577Z,0.00
2016-08-16T02:36:25.102Z,0.00
2016-08-16T02:37:25.799Z,0.00
2016-08-16T02:38:26.172Z,0.00
2016-08-16T02:39:26.710Z,0.00
2016-08-16T02:40:27.402Z,0.00
2016-08-16T02:41:27.736Z,0.00
2016-08-16T02:42:28.299Z,0.00
2016-08-16T02:43:28.947Z,0.00
2016-08-16T02:44:29.348Z,0.00
2016-08-16T02:45:29.713Z,0.00
2016-08-16T02:46:30.262Z,0.00
2016-08-16T02:47:30.789Z,0.00
2016-08-16T02:48:31.739Z,0.00
2016-08-16T02:49:32.263Z,0.00
2016-08-16T02:50:32.793Z,0.00
2016-08-16T02:51:33.038Z,0.00
2016-08-16T02:52:33.409Z,0.00
2016-08-16T02:53:34.091Z,0.00
2016-08-16T02:54:34.489Z,0.00
2016-08-16T02:55:35.475Z,0.00
2016-08-16T02:56:35.547Z,0.00
2016-08-16T02:57:36.198Z,0.00
2016-08-16T02:58:36.885Z,0.00
2016-08-16T02:59:37.553Z,0.00
2016-08-16T03:00:37.958Z,0.00
2016-08-16T03:01:38.459Z,0.00
2016-08-16T03:02:38.987Z,0.00
2016-08-16T03:03:39.253Z,0.00
2016-08-16T03:04:39.885Z,0.00
2016-08-16T03:05:40.717Z,0.00
2016-08-16T03:06:40.938Z,0.00
2016-08-16T03:07:41.611Z,0.00
2016-08-16T03:08:41.871Z,0.00
2016-08-16T03:09:42.669Z,0.00
2016-08-16T03:10:43.343Z,0.00
2016-08-16T03:11:43.571Z,0.00
2016-08-16T03:12:44.129Z,0.00
2016-08-16T03:13:44.798Z,0.00
2016-08-16T03:14:45.004Z,0.00
2016-08-16T03:15:45.828Z,0.00
2016-08-16T03:16:46.535Z,0.00
2016-08-16T03:17:46.744Z,0.00
2016-08-16T03:18:47.265Z,0.00
2016-08-16T03:19:47.808Z,0.00
2016-08-16T03:20:48.458Z,0.00
2016-08-16T03:21:48.990Z,0.00
2016-08-16T03:22:49.220Z,0.00
2016-08-16T03:23:49.902Z,0.00
2016-08-16T03:24:50.589Z,0.00
2016-08-16T03:25:51.112Z,0.00
2016-08-16T03:26:51.640Z,0.00
2016-08-16T03:27:51.856Z,0.00
2016-08-16T03:28:52.685Z,0.00
2016-08-16T03:29:52.923Z,0.00
2016-08-16T03:30:53.623Z,0.00
2016-08-16T03:31:54.123Z,0.00
2016-08-16T03:32:54.822Z,0.00
2016-08-16T03:33:55.198Z,0.00
2016-08-16T03:34:55.563Z,0.00
2016-08-16T03:35:56.258Z,0.00
2016-08-16T03:36:56.757Z,0.00
2016-08-16T03:37:57.430Z,0.00
2016-08-16T03:38:57.663Z,0.00
2016-08-16T03:39:58.351Z,0.00
2016-08-16T03:40:59.064Z,0.00
2016-08-16T03:41:59.248Z,0.00
2016-08-16T03:42:59.916Z,0.00
2016-08-16T03:44:00.467Z,0.00
2016-08-16T03:45:01.271Z,0.00
2016-08-16T03:46:01.672Z,0.00
2016-08-16T03:47:02.050Z,0.00
2016-08-16T03:48:02.701Z,0.00
2016-08-16T03:49:03.382Z,0.00
2016-08-16T03:50:03.459Z,0.00
2016-08-16T03:51:03.997Z,0.00
2016-08-16T03:52:07.387Z,0.00
2016-08-16T03:53:05.043Z,0.00
2016-08-16T03:54:06.013Z,0.00
2016-08-16T03:55:06.413Z,0.00
2016-08-16T03:56:06.914Z,0.00
2016-08-16T03:57:07.592Z,0.00
2016-08-16T03:58:08.130Z,0.00
2016-08-16T03:59:08.654Z,0.00
2016-08-16T04:00:08.909Z,0.00
2016-08-16T04:01:09.553Z,0.00
2016-08-16T04:02:10.081Z,0.00
2016-08-16T04:03:13.014Z,0.00
2016-08-16T04:04:11.019Z,0.00
2016-08-16T04:05:11.381Z,0.00
2016-08-16T04:06:12.075Z,0.00
2016-08-16T04:07:12.580Z,0.00
2016-08-16T04:08:13.262Z,0.00
2016-08-16T04:09:13.944Z,0.00
2016-08-16T04:10:14.617Z,0.00
2016-08-16T04:11:14.693Z,0.00
2016-08-16T04:12:15.391Z,0.00
2016-08-16T04:13:15.610Z,0.00
2016-08-16T04:14:16.465Z,0.00
2016-08-16T04:15:16.980Z,0.00
2016-08-16T04:16:17.196Z,0.00
2016-08-16T04:17:18.010Z,0.00
2016-08-16T04:18:18.563Z,0.00
2016-08-16T04:19:19.097Z,0.00
2016-08-16T04:20:19.601Z,1.00
2016-08-16T04:21:19.973Z,1.00
2016-08-16T04:22:20.677Z,1.00
2016-08-16T04:23:21.184Z,1.00
2016-08-16T04:24:21.868Z,1.00
2016-08-16T04:25:22.109Z,1.00
2016-08-16T04:26:22.942Z,1.00
2016-08-16T04:27:23.139Z,1.00
2016-08-16T04:28:23.525Z,2.00
2016-08-16T04:29:24.194Z,2.00
2016-08-16T04:30:24.716Z,2.00
2016-08-16T04:31:25.266Z,2.00
2016-08-16T04:32:26.235Z,2.00
2016-08-16T04:33:26.165Z,2.00
2016-08-16T04:34:26.848Z,2.00
2016-08-16T04:35:27.356Z,2.00
2016-08-16T04:36:28.052Z,2.00
2016-08-16T04:37:28.570Z,3.00
2016-08-16T04:38:29.118Z,3.00
2016-08-16T04:39:29.371Z,3.00
2016-08-16T04:40:29.863Z,3.00
2016-08-16T04:41:30.400Z,3.00
2016-08-16T04:42:31.213Z,3.00
2016-08-16T04:43:31.740Z,3.00
2016-08-16T04:44:32.120Z,4.00
2016-08-16T04:45:32.526Z,4.00
2016-08-16T04:46:33.174Z,4.00
2016-08-16T04:47:33.875Z,4.00
2016-08-16T04:48:34.096Z,4.00
2016-08-16T04:49:35.054Z,5.00
2016-08-16T04:50:35.138Z,5.00
2016-08-16T04:51:35.971Z,5.00
2016-08-16T04:52:36.333Z,5.00
2016-08-16T04:53:37.020Z,5.00
2016-08-16T04:54:37.577Z,5.00
2016-08-16T04:55:37.938Z,6.00
2016-08-16T04:56:38.595Z,6.00
2016-08-16T04:57:39.118Z,6.00
2016-08-16T04:58:39.671Z,6.00
2016-08-16T04:59:40.206Z,6.00
2016-08-16T05:00:40.430Z,6.00
2016-08-16T05:01:41.249Z,6.00
2016-08-16T05:02:41.911Z,7.00
2016-08-16T05:03:42.435Z,7.00
2016-08-16T05:04:42.524Z,7.00
2016-08-16T05:05:43.334Z,7.00
2016-08-16T05:06:44.019Z,7.00
2016-08-16T05:07:44.417Z,7.00
2016-08-16T05:08:44.947Z,7.00
2016-08-16T05:09:45.435Z,7.00
2016-08-16T05:10:45.821Z,7.00
2016-08-16T05:11:46.662Z,7.00
2016-08-16T05:12:47.033Z,8.00
2016-08-16T05:13:47.251Z,8.00
2016-08-16T05:14:48.079Z,8.00
2016-08-16T05:15:48.453Z,9.00
2016-08-16T05:16:49.164Z,9.00
2016-08-16T05:17:49.689Z,9.00
2016-08-16T05:18:50.066Z,10.00
2016-08-16T05:19:50.763Z,10.00
2016-08-16T05:20:51.284Z,10.00
2016-08-16T05:21:51.635Z,10.00
2016-08-16T05:22:52.474Z,10.00
2016-08-16T05:23:52.857Z,10.00
2016-08-16T05:24:53.075Z,10.00
2016-08-16T05:25:53.754Z,10.00
2016-08-16T05:26:54.291Z,10.00
2016-08-16T05:27:54.811Z,10.00
2016-08-16T05:28:55.211Z,10.00
2016-08-16T05:29:55.859Z,10.00
2016-08-16T05:30:56.233Z,9.00
2016-08-16T05:31:56.915Z,9.00
2016-08-16T05:32:57.887Z,9.00
2016-08-16T05:33:57.966Z,9.00
2016-08-16T05:34:58.517Z,10.00
2016-08-16T05:35:59.035Z,10.00
2016-08-16T05:36:59.713Z,10.00
2016-08-16T05:38:00.105Z,11.00
2016-08-16T05:39:00.621Z,11.00
2016-08-16T05:40:01.300Z,12.00
2016-08-16T05:41:01.829Z,13.00
2016-08-16T05:42:02.070Z,13.00
2016-08-16T05:43:02.748Z,14.00
2016-08-16T05:44:03.389Z,24.00
2016-08-16T05:45:03.919Z,27.00
2016-08-16T05:46:04.471Z,27.00
2016-08-16T05:47:04.863Z,25.00
2016-08-16T05:48:05.360Z,31.00
2016-08-16T05:49:05.757Z,37.00
2016-08-16T05:50:06.260Z,56.00
2016-08-16T05:51:06.974Z,52.00
2016-08-16T05:52:07.475Z,55.00
2016-08-16T05:53:08.282Z,59.00
2016-08-16T05:54:08.383Z,63.00
2016-08-16T05:55:09.218Z,62.00
2016-08-16T05:56:09.882Z,63.00
2016-08-16T05:57:10.109Z,64.00
2016-08-16T05:58:10.780Z,46.00
2016-08-16T05:59:11.154Z,41.00
2016-08-16T06:00:11.527Z,58.00
2016-08-16T06:01:12.235Z,64.00
2016-08-16T06:02:12.926Z,67.00
2016-08-16T06:03:13.412Z,75.00
2016-08-16T06:04:13.936Z,74.00
2016-08-16T06:05:14.165Z,75.00
2016-08-16T06:06:14.837Z,75.00
2016-08-16T06:07:15.526Z,72.00
2016-08-16T06:08:15.906Z,76.00
2016-08-16T06:09:16.424Z,80.00
2016-08-16T06:10:17.252Z,82.00
2016-08-16T06:11:17.487Z,82.00
2016-08-16T06:12:18.013Z,83.00
2016-08-16T06:13:18.388Z,83.00
2016-08-16T06:14:19.365Z,82.00
2016-08-16T06:15:19.595Z,82.00
2016-08-16T06:16:20.113Z,79.00
2016-08-16T06:17:20.795Z,79.00
2016-08-16T06:18:21.187Z,79.00
2016-08-16T06:19:21.718Z,70.00
2016-08-16T06:20:22.218Z,65.00
2016-08-16T06:21:22.609Z,71.00
2016-08-16T06:22:23.299Z,77.00
2016-08-16T06:23:23.674Z,84.00
2016-08-16T06:24:24.628Z,86.00
2016-08-16T06:25:25.046Z,83.00
2016-08-16T06:26:25.234Z,70.00
2016-08-16T06:27:26.085Z,88.00
2016-08-16T06:28:26.582Z,85.00
2016-08-16T06:29:26.972Z,87.00
2016-08-16T06:30:27.644Z,89.00
2016-08-16T06:31:28.031Z,87.00
2016-08-16T06:32:28.570Z,87.00
2016-08-16T06:33:29.263Z,89.00
2016-08-16T06:34:29.508Z,90.00
2016-08-16T06:35:30.168Z,90.00
2016-08-16T06:36:32.037Z,89.00
2016-08-16T06:37:31.400Z,90.00
2016-08-16T06:38:31.570Z,78.00
2016-08-16T06:39:32.307Z,90.00
2016-08-16T06:40:32.788Z,87.00
2016-08-16T06:41:33.482Z,91.00
2016-08-16T06:42:33.831Z,90.00
2016-08-16T06:43:34.381Z,92.00
2016-08-16T06:44:35.058Z,93.00
2016-08-16T06:45:35.407Z,94.00
2016-08-16T06:46:35.945Z,95.00
2016-08-16T06:47:36.341Z,96.00
2016-08-16T06:48:37.170Z,66.00
2016-08-16T06:49:37.697Z,97.00
2016-08-16T06:50:38.354Z,90.00
2016-08-16T06:51:38.731Z,91.00
2016-08-16T06:52:38.983Z,89.00
2016-08-16T06:53:39.655Z,94.00
2016-08-16T06:54:40.462Z,94.00
2016-08-16T06:55:40.560Z,88.00
2016-08-16T06:56:41.071Z,87.00
2016-08-16T06:57:42.060Z,93.00
2016-08-16T06:58:42.271Z,95.00
2016-08-16T06:59:42.984Z,96.00
2016-08-16T07:00:43.344Z,62.00
2016-08-16T07:01:43.855Z,87.00
2016-08-16T07:02:44.538Z,78.00
2016-08-16T07:03:44.767Z,72.00
2016-08-16T07:04:45.635Z,67.00
2016-08-16T07:05:45.872Z,73.00
2016-08-16T07:07:46.917Z,82.00
2016-08-16T07:08:47.577Z,93.00
2016-08-16T07:09:47.943Z,94.00
2016-08-16T07:10:48.638Z,94.00
2016-08-16T07:11:49.444Z,90.00
2016-08-16T07:12:49.847Z,92.00
2016-08-16T07:13:50.351Z,93.00
2016-08-16T07:14:51.030Z,88.00
2016-08-16T07:15:51.270Z,93.00
2016-08-16T07:16:51.637Z,89.00
2016-08-16T07:17:52.206Z,80.00
2016-08-16T07:18:52.846Z,97.00
2016-08-16T07:19:53.655Z,86.00
2016-08-16T07:20:54.187Z,58.00
2016-08-16T07:21:54.567Z,73.00
2016-08-16T07:22:55.238Z,91.00
2016-08-16T07:23:55.612Z,97.00
2016-08-16T07:24:56.001Z,96.00
2016-08-16T07:25:56.667Z,92.00
2016-08-16T07:26:57.073Z,99.00
2016-08-16T07:27:57.723Z,99.00
2016-08-16T07:28:58.258Z,99.00
2016-08-16T07:29:58.645Z,96.00
2016-08-16T07:30:59.621Z,94.00
2016-08-16T07:31:59.673Z,97.00
2016-08-16T07:33:00.208Z,88.00
2016-08-16T07:34:00.728Z,92.00
2016-08-16T07:35:01.423Z,96.00
2016-08-16T07:36:01.808Z,99.00
2016-08-16T07:37:02.486Z,95.00
2016-08-16T07:38:02.841Z,97.00
2016-08-16T07:39:03.224Z,99.00
2016-08-16T07:40:03.741Z,99.00
2016-08-16T07:41:04.432Z,99.00
2016-08-16T07:42:05.101Z,99.00
2016-08-16T07:43:05.483Z,98.00
2016-08-16T07:44:06.033Z,99.00
2016-08-16T07:45:06.403Z,90.00
2016-08-16T07:46:07.093Z,99.00
2016-08-16T07:47:07.895Z,99.00
2016-08-16T07:48:08.581Z,99.00
2016-08-16T07:49:08.811Z,94.00
2016-08-16T07:50:09.205Z,91.00
2016-08-16T07:51:09.722Z,73.00
2016-08-16T07:52:10.387Z,97.00
2016-08-16T07:53:10.914Z,97.00
2016-08-16T07:54:11.152Z,97.00
2016-08-16T07:55:11.697Z,97.00
2016-08-16T07:56:12.651Z,96.00
2016-08-16T07:57:13.019Z,94.00
2016-08-16T07:58:13.410Z,91.00
2016-08-16T07:59:14.226Z,90.00
2016-08-16T08:00:14.467Z,91.00
2016-08-16T08:01:14.979Z,96.00
2016-08-16T08:02:15.536Z,96.00
2016-08-16T08:03:16.186Z,97.00
2016-08-16T08:04:16.876Z,87.00
2016-08-16T08:05:17.106Z,95.00
2016-08-16T08:06:17.457Z,95.00
2016-08-16T08:07:18.133Z,96.00
2016-08-16T08:08:18.813Z,94.00
2016-08-16T08:09:19.333Z,93.00
2016-08-16T08:10:19.867Z,92.00
2016-08-16T08:11:20.402Z,91.00
2016-08-16T08:12:20.932Z,90.00
2016-08-16T08:13:21.464Z,90.00
2016-08-16T08:14:21.712Z,88.00
2016-08-16T08:15:22.346Z,88.00
2016-08-16T08:16:22.879Z,88.00
2016-08-16T08:17:23.706Z,86.00
2016-08-16T08:18:23.962Z,86.00
2016-08-16T08:19:24.611Z,88.00
2016-08-16T08:20:25.293Z,87.00
2016-08-16T08:21:25.539Z,87.00
2016-08-16T08:22:26.060Z,87.00
2016-08-16T08:23:26.603Z,87.00
2016-08-16T08:24:27.158Z,88.00
2016-08-16T08:25:27.798Z,88.00
2016-08-16T08:26:28.341Z,88.00
2016-08-16T08:27:28.732Z,87.00
2016-08-16T08:28:29.373Z,87.00
2016-08-16T08:29:29.925Z,87.00
2016-08-16T08:30:30.184Z,82.00
2016-08-16T08:31:30.681Z,83.00
2016-08-16T08:32:31.500Z,84.00
2016-08-16T08:33:31.725Z,82.00
2016-08-16T08:34:32.532Z,83.00
2016-08-16T08:35:33.072Z,84.00
2016-08-16T08:36:33.325Z,81.00
2016-08-16T08:37:33.985Z,80.00
2016-08-16T08:38:34.360Z,80.00
2016-08-16T08:39:35.056Z,78.00
2016-08-16T08:40:35.552Z,79.00
2016-08-16T08:41:36.225Z,82.00
2016-08-16T08:42:36.762Z,85.00
2016-08-16T08:43:37.307Z,86.00
2016-08-16T08:44:37.960Z,86.00
2016-08-16T08:45:38.511Z,86.00
2016-08-16T08:46:38.885Z,84.00
2016-08-16T08:47:39.392Z,82.00
2016-08-16T08:48:39.928Z,82.00
2016-08-16T08:49:40.470Z,75.00
2016-08-16T08:50:40.834Z,74.00
2016-08-16T08:51:41.380Z,79.00
2016-08-16T08:52:41.914Z,82.00
2016-08-16T08:53:42.409Z,83.00
2016-08-16T08:54:42.792Z,82.00
2016-08-16T08:55:43.486Z,82.00
2016-08-16T08:56:44.158Z,82.00
2016-08-16T08:57:44.407Z,83.00
2016-08-16T08:58:45.103Z,82.00
2016-08-16T08:59:45.443Z,82.00
2016-08-16T09:00:46.119Z,78.00
2016-08-16T09:01:46.810Z,82.00
2016-08-16T09:02:47.184Z,82.00
2016-08-16T09:03:47.694Z,82.00
2016-08-16T09:04:48.244Z,77.00
2016-08-16T09:05:48.621Z,71.00
2016-08-16T09:06:49.580Z,75.00
2016-08-16T09:07:50.101Z,78.00
2016-08-16T09:08:50.474Z,79.00
2016-08-16T09:09:51.165Z,78.00
2016-08-16T09:10:51.386Z,76.00
2016-08-16T09:11:51.785Z,72.00
2016-08-16T09:12:52.447Z,77.00
2016-08-16T09:13:53.137Z,73.00
2016-08-16T09:14:53.535Z,74.00
2016-08-16T09:15:54.214Z,76.00
2016-08-16T09:16:54.839Z,74.00
2016-08-16T09:17:55.111Z,74.00
2016-08-16T09:18:55.617Z,73.00
2016-08-16T09:19:56.135Z,75.00
2016-08-16T09:20:56.654Z,77.00
2016-08-16T09:21:57.190Z,76.00
2016-08-16T09:22:57.861Z,76.00
2016-08-16T09:23:58.388Z,75.00
2016-08-16T09:24:58.765Z,75.00
2016-08-16T09:25:59.290Z,75.00
2016-08-16T09:26:59.819Z,73.00
2016-08-16T09:28:00.384Z,72.00
2016-08-16T09:29:01.044Z,74.00
2016-08-16T09:30:01.285Z,75.00
2016-08-16T09:31:01.925Z,73.00
2016-08-16T09:32:02.473Z,70.00
2016-08-16T09:33:03.133Z,71.00
2016-08-16T09:34:03.657Z,70.00
2016-08-16T09:35:03.900Z,73.00
2016-08-16T09:36:04.580Z,74.00
2016-08-16T09:37:05.244Z,75.00
2016-08-16T09:38:05.490Z,74.00
2016-08-16T09:39:06.204Z,73.00
2016-08-16T09:40:06.693Z,74.00
2016-08-16T09:41:07.060Z,74.00
2016-08-16T09:42:07.890Z,74.00
2016-08-16T09:43:08.410Z,74.00
2016-08-16T09:44:08.794Z,74.00
2016-08-16T09:45:09.326Z,72.00
2016-08-16T09:46:09.857Z,73.00
2016-08-16T09:47:10.227Z,73.00
2016-08-16T09:48:11.058Z,73.00
2016-08-16T09:49:11.432Z,75.00
2016-08-16T09:50:11.971Z,77.00
2016-08-16T09:51:12.654Z,74.00
2016-08-16T09:52:13.024Z,53.00
2016-08-16T09:53:13.695Z,76.00
2016-08-16T09:54:14.221Z,32.00
2016-08-16T09:55:14.764Z,21.00
2016-08-16T09:56:15.129Z,19.00
2016-08-16T09:57:15.638Z,18.00
2016-08-16T09:58:16.171Z,17.00
2016-08-16T09:59:16.703Z,17.00
2016-08-16T10:00:17.255Z,17.00
2016-08-16T10:01:17.913Z,17.00
2016-08-16T10:02:18.283Z,17.00
2016-08-16T10:03:18.676Z,17.00
2016-08-16T10:04:19.522Z,16.00
2016-08-16T10:05:19.855Z,16.00
2016-08-16T10:06:20.539Z,16.00
2016-08-16T10:07:20.945Z,16.00
2016-08-16T10:08:21.448Z,17.00
2016-08-16T10:09:21.995Z,18.00
2016-08-16T10:10:22.383Z,18.00
2016-08-16T10:11:23.212Z,19.00
2016-08-16T10:12:23.463Z,19.00
2016-08-16T10:13:24.387Z,19.00
2016-08-16T10:14:24.617Z,19.00
2016-08-16T10:15:25.163Z,20.00
2016-08-16T10:16:25.998Z,21.00
2016-08-16T10:17:26.195Z,21.00
2016-08-16T10:18:26.874Z,22.00
2016-08-16T10:19:27.316Z,22.00
2016-08-16T10:20:27.801Z,22.00
2016-08-16T10:21:28.195Z,23.00
2016-08-16T10:22:29.014Z,24.00
2016-08-16T10:23:29.529Z,63.00
2016-08-16T10:24:29.749Z,66.00
2016-08-16T10:25:30.282Z,26.00
2016-08-16T10:26:30.962Z,24.00
2016-08-16T10:27:31.631Z,23.00
2016-08-16T10:28:32.021Z,24.00
2016-08-16T10:29:32.570Z,24.00
2016-08-16T10:30:33.082Z,38.00
2016-08-16T10:31:33.759Z,23.00
2016-08-16T10:32:33.979Z,25.00
2016-08-16T10:33:34.780Z,64.00
2016-08-16T10:34:36.203Z,57.00
2016-08-16T10:35:35.677Z,57.00
2016-08-16T10:36:36.056Z,59.00
2016-08-16T10:37:36.756Z,62.00
2016-08-16T10:38:37.593Z,43.00
2016-08-16T10:39:37.795Z,28.00
2016-08-16T10:40:38.494Z,61.00
2016-08-16T10:41:39.035Z,60.00
2016-08-16T10:42:39.394Z,61.00
2016-08-16T10:43:40.068Z,61.00
2016-08-16T10:44:40.589Z,60.00
2016-08-16T10:45:40.823Z,58.00
2016-08-16T10:46:41.649Z,59.00
2016-08-16T10:47:41.886Z,59.00
2016-08-16T10:48:42.454Z,59.00
2016-08-16T10:49:43.395Z,58.00
2016-08-16T10:50:43.765Z,58.00
2016-08-16T10:51:44.292Z,57.00
2016-08-16T10:52:44.832Z,56.00
2016-08-16T10:53:45.199Z,55.00
2016-08-16T10:54:46.036Z,55.00
2016-08-16T10:55:46.415Z,52.00
2016-08-16T10:56:46.986Z,53.00
2016-08-16T10:57:47.309Z,53.00
2016-08-16T10:58:47.722Z,53.00
2016-08-16T10:59:48.369Z,52.00
2016-08-16T11:00:49.187Z,51.00
2016-08-16T11:01:49.868Z,51.00
2016-08-16T11:02:49.940Z,51.00
2016-08-16T11:03:50.787Z,52.00
2016-08-16T11:04:51.161Z,52.00
2016-08-16T11:05:51.669Z,53.00
2016-08-16T11:06:52.190Z,25.00
2016-08-16T11:08:48.894Z,18.00
2016-08-16T11:09:53.652Z,18.00
2016-08-16T11:10:54.326Z,18.00
2016-08-16T11:11:54.562Z,19.00
2016-08-16T11:12:55.119Z,19.00
2016-08-16T11:13:55.893Z,19.00
2016-08-16T11:14:56.264Z,18.00
2016-08-16T11:15:56.835Z,18.00
2016-08-16T11:16:57.343Z,19.00
2016-08-16T11:17:58.007Z,22.00
2016-08-16T11:18:58.579Z,26.00
2016-08-16T11:19:58.932Z,22.00
2016-08-16T11:20:59.317Z,24.00
2016-08-16T11:21:59.975Z,50.00
2016-08-16T11:23:00.670Z,45.00
2016-08-16T11:24:01.189Z,36.00
2016-08-16T11:25:01.705Z,20.00
2016-08-16T11:26:02.384Z,20.00
2016-08-16T11:27:02.785Z,20.00
2016-08-16T11:28:03.302Z,21.00
2016-08-16T11:29:03.693Z,21.00
2016-08-16T11:30:04.187Z,21.00
2016-08-16T11:31:04.867Z,21.00
2016-08-16T11:32:05.128Z,22.00
2016-08-16T11:33:05.941Z,29.00
2016-08-16T11:34:06.482Z,33.00
2016-08-16T11:35:07.131Z,51.00
2016-08-16T11:36:07.209Z,52.00
2016-08-16T11:37:08.032Z,51.00
2016-08-16T11:38:08.586Z,50.00
2016-08-16T11:39:09.086Z,22.00
2016-08-16T11:40:09.473Z,30.00
2016-08-16T11:41:10.169Z,49.00
2016-08-16T11:42:10.824Z,49.00
2016-08-16T11:43:11.089Z,49.00
2016-08-16T11:44:11.443Z,50.00
2016-08-16T11:45:12.291Z,49.00
2016-08-16T11:46:12.500Z,49.00
2016-08-16T11:47:13.171Z,49.00
2016-08-16T11:48:13.564Z,49.00
2016-08-16T11:49:14.219Z,49.00
2016-08-16T11:50:14.609Z,48.00
2016-08-16T11:51:15.577Z,48.00
2016-08-16T11:52:15.674Z,47.00
2016-08-16T11:53:16.520Z,47.00
2016-08-16T11:54:16.897Z,47.00
2016-08-16T11:55:17.238Z,47.00
2016-08-16T11:56:17.938Z,48.00
2016-08-16T11:57:18.466Z,48.00
2016-08-16T11:58:19.139Z,48.00
2016-08-16T11:59:19.364Z,48.00
2016-08-16T12:00:20.190Z,49.00
2016-08-16T12:01:20.862Z,49.00
2016-08-16T12:02:21.107Z,49.00
2016-08-16T12:03:21.635Z,49.00
2016-08-16T12:04:22.146Z,50.00
2016-08-16T12:05:22.693Z,50.00
2016-08-16T12:06:23.203Z,51.00
2016-08-16T12:07:23.733Z,52.00
2016-08-16T12:08:24.701Z,52.00
2016-08-16T12:09:24.656Z,39.00
2016-08-16T12:10:25.151Z,31.00
2016-08-16T12:11:25.863Z,25.00
2016-08-16T12:12:26.376Z,29.00
2016-08-16T12:13:26.882Z,38.00
2016-08-16T12:14:27.596Z,51.00
2016-08-16T12:15:27.943Z,45.00
2016-08-16T12:16:28.618Z,48.00
2016-08-16T12:17:29.001Z,23.00
2016-08-16T12:18:29.555Z,22.00
2016-08-16T12:19:30.213Z,21.00
2016-08-16T12:20:30.571Z,21.00
2016-08-16T12:21:31.098Z,25.00
2016-08-16T12:22:31.668Z,36.00
2016-08-16T12:23:32.155Z,40.00
2016-08-16T12:24:32.681Z,47.00
2016-08-16T12:25:33.365Z,47.00
2016-08-16T12:26:33.766Z,46.00
2016-08-16T12:27:34.297Z,45.00
2016-08-16T12:28:34.967Z,45.00
2016-08-16T12:29:35.181Z,46.00
2016-08-16T12:30:35.872Z,46.00
2016-08-16T12:31:36.389Z,46.00
2016-08-16T12:32:36.793Z,46.00
2016-08-16T12:33:37.333Z,46.00
2016-08-16T12:34:37.976Z,46.00
2016-08-16T12:35:38.531Z,46.00
2016-08-16T12:36:39.191Z,45.00
2016-08-16T12:37:39.860Z,45.00
2016-08-16T12:38:42.482Z,45.00
2016-08-16T12:39:40.769Z,46.00
2016-08-16T12:40:41.291Z,46.00
2016-08-16T12:41:41.689Z,46.00
2016-08-16T12:42:42.194Z,46.00
2016-08-16T12:43:42.716Z,46.00
2016-08-16T12:44:43.565Z,46.00
2016-08-16T12:45:43.771Z,46.00
2016-08-16T12:46:44.318Z,46.00
2016-08-16T12:47:44.992Z,46.00
2016-08-16T12:48:45.212Z,46.00
2016-08-16T12:49:45.879Z,46.00
2016-08-16T12:50:46.567Z,45.00
2016-08-16T12:51:47.082Z,45.00
2016-08-16T12:52:47.305Z,45.00
2016-08-16T12:53:48.024Z,45.00
2016-08-16T12:54:48.377Z,26.00
2016-08-16T12:55:49.183Z,19.00
2016-08-16T12:56:49.717Z,18.00
2016-08-16T12:57:50.249Z,17.00
2016-08-16T12:58:50.796Z,17.00
2016-08-16T12:59:51.147Z,18.00
2016-08-16T13:00:51.519Z,18.00
2016-08-16T13:01:52.216Z,18.00
2016-08-16T13:02:52.724Z,17.00
2016-08-16T13:03:53.415Z,16.00
2016-08-16T13:04:53.788Z,16.00
2016-08-16T13:05:54.309Z,16.00
2016-08-16T13:06:54.692Z,16.00
2016-08-16T13:07:55.370Z,36.00
2016-08-16T13:08:55.896Z,42.00
2016-08-16T13:09:56.439Z,42.00
2016-08-16T13:10:56.961Z,42.00
2016-08-16T13:11:57.636Z,40.00